createdAt,value
2018-06-13T00:02:07.110Z,10.57
2018-06-13T00:04:35.305Z,9.30
2018-06-13T00:07:03.558Z,9.10
2018-06-13T00:09:32.594Z,10.43
2018-06-13T00:12:00.570Z,9.97
2018-06-13T00:14:28.789Z,10.60
2018-06-13T00:16:57.730Z,10.20
2018-06-13T00:19:26.001Z,10.00
2018-06-13T00:21:54.261Z,9.00
2018-06-13T00:24:23.155Z,10.10
2018-06-13T00:26:51.406Z,9.47
2018-06-13T00:29:19.613Z,8.80
2018-06-13T00:31:48.274Z,9.00
2018-06-13T00:34:16.481Z,9.70
2018-06-13T00:36:44.670Z,9.83
2018-06-13T00:39:12.918Z,10.60
2018-06-13T00:41:41.565Z,9.63
2018-06-13T00:44:11.265Z,10.13
2018-06-13T00:46:40.049Z,9.40
2018-06-13T00:49:08.219Z,10.50
2018-06-13T00:51:36.441Z,9.87
2018-06-13T00:54:04.679Z,10.03
2018-06-13T00:56:33.791Z,10.03
2018-06-13T00:59:02.038Z,10.43
2018-06-13T01:01:32.538Z,10.53
2018-06-13T01:04:00.738Z,9.30
2018-06-13T01:06:28.930Z,8.53
2018-06-13T01:08:57.113Z,9.60
2018-06-13T01:11:25.313Z,10.03
2018-06-13T01:13:53.516Z,9.10
2018-06-13T01:16:21.769Z,10.57
2018-06-13T01:18:51.218Z,9.63
2018-06-13T01:21:21.033Z,10.23
2018-06-13T01:23:49.738Z,10.47
2018-06-13T01:26:18.301Z,11.77
2018-06-13T01:28:46.476Z,11.53
2018-06-13T01:31:14.693Z,11.30
2018-06-13T01:33:42.893Z,10.83
2018-06-13T01:36:10.821Z,11.33
2018-06-13T01:38:39.809Z,11.70
2018-06-13T01:41:08.973Z,11.23
2018-06-13T01:43:37.251Z,9.63
2018-06-13T01:46:05.494Z,10.20
2018-06-13T01:48:33.697Z,12.57
2018-06-13T01:51:02.766Z,10.70
2018-06-13T01:53:32.058Z,11.77
2018-06-13T01:56:00.264Z,10.70
2018-06-13T01:58:28.461Z,9.87
2018-06-13T02:00:56.689Z,10.70
2018-06-13T02:03:24.881Z,9.40
2018-06-13T02:05:53.089Z,10.93
2018-06-13T02:08:21.282Z,10.83
2018-06-13T02:10:49.493Z,10.50
2018-06-13T02:13:17.736Z,10.13
2018-06-13T02:15:45.902Z,10.97
2018-06-13T02:18:14.153Z,9.37
2018-06-13T02:20:43.749Z,11.07
2018-06-13T02:23:12.445Z,9.73
2018-06-13T02:25:40.662Z,10.53
2018-06-13T02:28:09.421Z,9.97
2018-06-13T02:30:37.646Z,10.97
2018-06-13T02:33:05.885Z,10.70
2018-06-13T02:35:34.100Z,10.47
2018-06-13T02:38:03.342Z,9.80
2018-06-13T02:40:31.526Z,10.70
2018-06-13T02:42:59.753Z,11.20
2018-06-13T02:45:27.941Z,12.50
2018-06-13T02:47:56.201Z,11.50
2018-06-13T02:50:25.612Z,11.43
2018-06-13T02:52:54.558Z,13.17
2018-06-13T02:55:23.509Z,10.30
2018-06-13T02:57:51.725Z,11.10
2018-06-13T03:00:20.598Z,10.80
2018-06-13T03:02:48.790Z,10.20
2018-06-13T03:05:16.977Z,9.37
2018-06-13T03:07:45.205Z,9.50
2018-06-13T03:10:13.394Z,9.70
2018-06-13T03:12:41.667Z,11.13
2018-06-13T03:15:09.864Z,10.10
2018-06-13T03:17:38.140Z,9.60
2018-06-13T03:20:06.982Z,10.20
2018-06-13T03:22:35.194Z,9.07
2018-06-13T03:25:03.514Z,9.73
2018-06-13T03:27:31.473Z,10.50
2018-06-13T03:29:59.709Z,9.17
2018-06-13T03:32:27.929Z,10.10
2018-06-13T03:34:56.954Z,9.90
2018-06-13T03:37:25.231Z,9.73
2018-06-13T03:39:53.446Z,9.00
2018-06-13T03:42:21.664Z,9.33
2018-06-13T03:44:49.849Z,9.33
2018-06-13T03:47:18.054Z,9.13
2018-06-13T03:49:46.272Z,10.13
2018-06-13T03:52:14.519Z,10.03
2018-06-13T03:54:42.733Z,10.57
2018-06-13T03:57:10.997Z,9.90
2018-06-13T03:59:38.977Z,8.90
2018-06-13T04:02:07.550Z,9.00
2018-06-13T04:04:35.758Z,9.07
2018-06-13T04:07:05.972Z,7.73
2018-06-13T04:09:34.600Z,7.23
2018-06-13T04:12:03.137Z,6.60
2018-06-13T04:14:31.357Z,5.67
2018-06-13T04:16:59.538Z,6.13
2018-06-13T04:19:28.047Z,6.30
2018-06-13T04:21:56.250Z,5.90
2018-06-13T04:24:24.426Z,5.43
2018-06-13T04:26:52.678Z,5.30
2018-06-13T04:29:22.601Z,6.00
2018-06-13T04:31:50.793Z,5.13
2018-06-13T04:34:18.998Z,5.13
2018-06-13T04:36:48.938Z,4.13
2018-06-13T04:39:18.294Z,5.00
2018-06-13T04:41:46.902Z,4.40
2018-06-13T04:44:15.173Z,4.13
2018-06-13T04:46:43.370Z,5.10
2018-06-13T04:49:11.560Z,5.10
2018-06-13T04:51:39.802Z,5.13
2018-06-13T04:54:08.390Z,5.00
2018-06-13T04:56:36.618Z,4.63
2018-06-13T04:59:05.426Z,5.00
2018-06-13T05:01:33.625Z,5.40
2018-06-13T05:04:01.832Z,4.60
2018-06-13T05:06:29.765Z,4.23
2018-06-13T05:08:57.957Z,4.50
2018-06-13T05:11:26.531Z,4.87
2018-06-13T05:13:54.726Z,5.10
2018-06-13T05:16:22.933Z,5.30
2018-06-13T05:18:51.698Z,4.13
2018-06-13T05:21:19.885Z,5.07
2018-06-13T05:23:48.093Z,4.90
2018-06-13T05:26:16.329Z,4.43
2018-06-13T05:28:44.578Z,4.90
2018-06-13T05:31:13.113Z,5.63
2018-06-13T05:33:41.338Z,5.20
2018-06-13T05:36:09.557Z,4.80
2018-06-13T05:38:38.307Z,5.57
2018-06-13T05:41:06.787Z,5.00
2018-06-13T05:43:34.744Z,5.13
2018-06-13T05:46:02.984Z,4.93
2018-06-13T05:48:31.212Z,5.00
2018-06-13T05:50:59.442Z,5.07
2018-06-13T05:53:27.637Z,4.80
2018-06-13T05:55:55.857Z,4.77
2018-06-13T05:58:24.961Z,6.37
2018-06-13T06:00:53.702Z,5.27
2018-06-13T06:03:21.889Z,5.47
2018-06-13T06:05:50.098Z,4.97
2018-06-13T06:08:18.311Z,6.50
2018-06-13T06:10:46.518Z,5.40
2018-06-13T06:13:15.106Z,5.00
2018-06-13T06:15:43.077Z,5.40
2018-06-13T06:18:11.614Z,5.50
2018-06-13T06:20:39.964Z,5.50
2018-06-13T06:23:08.193Z,5.50
2018-06-13T06:25:36.472Z,4.70
2018-06-13T06:28:04.689Z,5.30
2018-06-13T06:30:32.850Z,4.80
2018-06-13T06:33:01.726Z,5.53
2018-06-13T06:35:29.941Z,5.87
2018-06-13T06:37:58.794Z,5.60
2018-06-13T06:40:28.154Z,5.60
2018-06-13T06:42:56.609Z,5.40
2018-06-13T06:45:24.826Z,5.80
2018-06-13T06:47:53.002Z,5.40
2018-06-13T06:50:21.269Z,4.63
2018-06-13T06:52:51.521Z,5.13
2018-06-13T06:55:21.301Z,5.07
2018-06-13T06:57:49.454Z,4.60
2018-06-13T07:00:17.705Z,4.30
2018-06-13T07:02:45.893Z,4.60
2018-06-13T07:05:15.085Z,4.40
2018-06-13T07:07:43.341Z,4.93
2018-06-13T07:10:11.505Z,4.97
2018-06-13T07:12:39.711Z,5.30
2018-06-13T07:15:07.894Z,6.37
2018-06-13T07:17:36.133Z,4.80
2018-06-13T07:20:04.683Z,4.40
2018-06-13T07:22:33.274Z,5.40
2018-06-13T07:25:01.811Z,5.40
2018-06-13T07:27:29.996Z,5.03
2018-06-13T07:29:58.712Z,4.20
2018-06-13T07:32:26.900Z,4.90
2018-06-13T07:34:55.328Z,5.13
2018-06-13T07:37:24.001Z,4.93
2018-06-13T07:39:52.292Z,4.87
2018-06-13T07:42:20.506Z,3.83
2018-06-13T07:44:48.695Z,4.20
2018-06-13T07:47:17.201Z,4.30
2018-06-13T07:49:45.461Z,4.90
2018-06-13T07:52:14.073Z,4.60
2018-06-13T07:54:42.922Z,4.30
2018-06-13T07:57:11.102Z,3.80
2018-06-13T07:59:42.631Z,4.40
2018-06-13T08:02:10.928Z,4.63
2018-06-13T08:04:39.092Z,5.00
2018-06-13T08:07:07.322Z,5.30
2018-06-13T08:09:35.522Z,4.17
2018-06-13T08:12:03.743Z,5.57
2018-06-13T08:14:32.494Z,3.70
2018-06-13T08:17:01.607Z,4.60
2018-06-13T08:19:29.759Z,3.57
2018-06-13T08:21:59.252Z,4.70
2018-06-13T08:24:27.550Z,3.87
2018-06-13T08:26:55.729Z,4.37
2018-06-13T08:29:26.221Z,4.33
2018-06-13T08:31:55.486Z,3.90
2018-06-13T08:34:23.646Z,3.60
2018-06-13T08:36:52.323Z,3.43
2018-06-13T08:39:21.122Z,3.63
2018-06-13T08:41:50.002Z,3.60
2018-06-13T08:44:18.145Z,3.13
2018-06-13T08:46:46.507Z,2.80
2018-06-13T08:49:14.914Z,3.67
2018-06-13T08:51:43.882Z,2.90
2018-06-13T08:54:12.643Z,2.73
2018-06-13T08:56:41.194Z,3.23
2018-06-13T08:59:09.533Z,2.87
2018-06-13T09:01:38.756Z,3.27
2018-06-13T09:04:06.952Z,2.80
2018-06-13T09:06:35.479Z,2.90
2018-06-13T09:09:06.303Z,3.50
2018-06-13T09:11:34.884Z,3.07
2018-06-13T09:14:04.394Z,2.67
2018-06-13T09:16:32.590Z,2.83
2018-06-13T09:19:01.879Z,3.20
2018-06-13T09:21:30.258Z,3.20
2018-06-13T09:23:58.463Z,3.00
2018-06-13T09:26:27.079Z,2.90
2018-06-13T09:28:56.764Z,3.13
2018-06-13T09:31:25.975Z,2.73
2018-06-13T09:33:54.294Z,2.93
2018-06-13T09:36:22.541Z,2.23
2018-06-13T09:38:51.201Z,2.30
2018-06-13T09:41:19.435Z,2.60
2018-06-13T09:43:47.648Z,2.30
2018-06-13T09:46:16.980Z,2.60
2018-06-13T09:48:45.871Z,2.60
2018-06-13T09:51:14.081Z,2.37
2018-06-13T09:53:42.326Z,2.27
2018-06-13T09:56:10.588Z,2.17
2018-06-13T09:58:44.282Z,1.77
2018-06-13T10:01:17.820Z,1.73
2018-06-13T10:03:45.982Z,2.20
2018-06-13T10:06:14.153Z,2.20
2018-06-13T10:08:42.404Z,2.10
2018-06-13T10:11:10.583Z,1.93
2018-06-13T10:13:38.729Z,2.30
2018-06-13T10:16:06.934Z,2.13
2018-06-13T10:18:35.528Z,1.93
2018-06-13T10:21:03.663Z,1.70
2018-06-13T10:23:31.884Z,1.90
2018-06-13T10:26:00.581Z,2.10
2018-06-13T10:28:28.742Z,1.97
2018-06-13T10:30:57.922Z,1.90
2018-06-13T10:33:26.082Z,2.27
2018-06-13T10:35:54.265Z,2.27
2018-06-13T10:38:22.922Z,1.93
2018-06-13T10:40:51.122Z,2.10
2018-06-13T10:43:19.945Z,2.43
2018-06-13T10:45:48.121Z,3.33
2018-06-13T10:48:16.285Z,2.37
2018-06-13T10:50:45.438Z,2.97
2018-06-13T10:53:13.615Z,2.70
2018-06-13T10:55:41.857Z,2.40
2018-06-13T10:58:09.974Z,2.60
2018-06-13T11:00:38.821Z,2.60
2018-06-13T11:03:08.306Z,2.40
2018-06-13T11:05:36.649Z,2.40
2018-06-13T11:08:04.989Z,2.40
2018-06-13T11:10:33.535Z,2.63
2018-06-13T11:13:01.685Z,2.10
2018-06-13T11:15:30.305Z,2.03
2018-06-13T11:17:58.470Z,2.70
2018-06-13T11:20:26.688Z,2.17
2018-06-13T11:22:56.090Z,2.10
2018-06-13T11:25:24.243Z,2.33
2018-06-13T11:27:53.315Z,2.20
2018-06-13T11:30:21.877Z,1.50
2018-06-13T11:32:50.397Z,1.77
2018-06-13T11:35:18.572Z,1.53
2018-06-13T11:37:47.901Z,1.67
2018-06-13T11:40:16.057Z,2.00
2018-06-13T11:42:45.218Z,1.80
2018-06-13T11:45:14.965Z,1.50
2018-06-13T11:47:43.146Z,1.77
2018-06-13T11:50:11.903Z,1.57
2018-06-13T11:52:40.477Z,1.20
2018-06-13T11:55:09.521Z,1.37
2018-06-13T11:57:38.298Z,1.70
2018-06-13T12:00:07.016Z,1.27
2018-06-13T12:02:35.214Z,1.13
2018-06-13T12:05:03.817Z,1.23
2018-06-13T12:07:31.976Z,1.40
2018-06-13T12:10:01.521Z,1.57
2018-06-13T12:12:29.714Z,1.70
2018-06-13T12:14:59.114Z,1.60
2018-06-13T12:17:27.315Z,1.40
2018-06-13T12:19:55.517Z,1.30
2018-06-13T12:22:23.678Z,1.70
2018-06-13T12:24:52.222Z,1.47
2018-06-13T12:27:21.445Z,1.80
2018-06-13T12:29:50.630Z,1.40
2018-06-13T12:32:19.651Z,2.03
2018-06-13T12:34:48.748Z,1.47
2018-06-13T12:37:17.355Z,1.37
2018-06-13T12:39:45.543Z,1.33
2018-06-13T12:42:13.722Z,1.73
2018-06-13T12:44:42.150Z,1.60
2018-06-13T12:47:10.810Z,1.70
2018-06-13T12:49:39.620Z,1.47
2018-06-13T12:52:07.824Z,1.57
2018-06-13T12:54:36.033Z,1.20
2018-06-13T12:57:04.894Z,1.50
2018-06-13T12:59:33.577Z,1.37
2018-06-13T13:02:03.556Z,1.93
2018-06-13T13:04:32.003Z,1.83
2018-06-13T13:07:00.154Z,1.60
2018-06-13T13:09:28.350Z,2.00
2018-06-13T13:11:56.517Z,1.60
2018-06-13T13:14:25.584Z,2.63
2018-06-13T13:16:53.777Z,2.20
2018-06-13T13:19:22.637Z,2.37
2018-06-13T13:21:51.406Z,2.70
2018-06-13T13:24:20.109Z,2.47
2018-06-13T13:26:48.510Z,2.73
2018-06-13T13:29:16.738Z,3.03
2018-06-13T13:31:46.286Z,2.60
2018-06-13T13:34:15.111Z,2.53
2018-06-13T13:36:43.567Z,2.63
2018-06-13T13:39:12.201Z,2.43
2018-06-13T13:41:41.773Z,2.60
2018-06-13T13:44:10.018Z,2.40
2018-06-13T13:46:39.498Z,3.30
2018-06-13T13:49:07.690Z,2.67
2018-06-13T13:51:35.901Z,2.80
2018-06-13T13:54:04.749Z,2.50
2018-06-13T13:56:33.250Z,2.20
2018-06-13T13:59:01.417Z,2.50
2018-06-13T14:01:29.585Z,2.80
2018-06-13T14:03:57.791Z,2.43
2018-06-13T14:06:26.557Z,2.90
2018-06-13T14:08:54.769Z,2.43
2018-06-13T14:11:23.182Z,2.70
2018-06-13T14:13:54.078Z,2.57
2018-06-13T14:16:22.302Z,2.50
2018-06-13T14:18:53.577Z,2.80
2018-06-13T14:21:21.766Z,2.80
2018-06-13T14:23:49.906Z,3.00
2018-06-13T14:26:18.441Z,3.60
2018-06-13T14:28:46.585Z,3.20
2018-06-13T14:31:14.837Z,3.77
2018-06-13T14:33:43.026Z,2.90
2018-06-13T14:36:11.215Z,2.90
2018-06-13T14:38:39.369Z,3.23
2018-06-13T14:41:08.740Z,3.10
2018-06-13T14:43:36.895Z,3.70
2018-06-13T14:46:05.050Z,4.30
2018-06-13T14:48:34.501Z,4.03
2018-06-13T14:51:03.518Z,3.90
2018-06-13T14:53:31.953Z,3.80
2018-06-13T14:56:06.124Z,3.50
2018-06-13T14:58:34.294Z,3.83
2018-06-13T15:01:02.487Z,3.47
2018-06-13T15:03:30.695Z,4.03
2018-06-13T15:05:59.465Z,3.40
2018-06-13T15:08:27.640Z,3.40
2018-06-13T15:10:55.794Z,3.40
2018-06-13T15:13:24.008Z,3.57
2018-06-13T15:15:52.266Z,3.57
2018-06-13T15:18:20.474Z,3.47
2018-06-13T15:20:48.678Z,3.73
2018-06-13T15:23:16.935Z,3.30
2018-06-13T15:25:45.081Z,3.60
2018-06-13T15:28:13.641Z,3.30
2018-06-13T15:30:42.289Z,3.53
2018-06-13T15:33:10.466Z,3.33
2018-06-13T15:35:38.642Z,3.37
2018-06-13T15:38:06.804Z,3.40
2018-06-13T15:40:35.002Z,3.27
2018-06-13T15:43:03.795Z,3.13
2018-06-13T15:45:33.020Z,3.10
2018-06-13T15:48:01.217Z,3.30
2018-06-13T15:50:29.441Z,3.03
2018-06-13T15:52:57.658Z,3.13
2018-06-13T15:55:25.858Z,3.00
2018-06-13T15:57:54.025Z,2.50
2018-06-13T16:00:23.021Z,3.07
2018-06-13T16:02:51.563Z,2.73
2018-06-13T16:05:19.750Z,3.23
2018-06-13T16:07:48.503Z,2.90
2018-06-13T16:10:18.686Z,3.00
2018-06-13T16:12:46.873Z,3.40
2018-06-13T16:15:15.054Z,2.43
2018-06-13T16:17:43.718Z,2.80
2018-06-13T16:20:12.811Z,2.50
2018-06-13T16:22:41.004Z,2.70
2018-06-13T16:25:09.629Z,2.57
2018-06-13T16:27:37.798Z,2.77
2018-06-13T16:30:06.093Z,2.80
2018-06-13T16:32:35.108Z,2.90
2018-06-13T16:35:04.185Z,2.97
2018-06-13T16:37:32.377Z,3.20
2018-06-13T16:40:01.321Z,2.40
2018-06-13T16:42:29.539Z,2.53
2018-06-13T16:44:57.732Z,2.33
2018-06-13T16:47:26.812Z,2.67
2018-06-13T16:49:54.970Z,2.30
2018-06-13T16:52:34.566Z,2.50
2018-06-13T16:55:24.739Z,2.33
2018-06-13T16:57:54.155Z,2.50
2018-06-13T17:00:22.894Z,2.77
2018-06-13T17:02:52.505Z,1.80
2018-06-13T17:05:20.702Z,2.60
2018-06-13T17:07:49.278Z,2.20
2018-06-13T17:10:17.825Z,2.80
2018-06-13T17:12:46.044Z,2.30
2018-06-13T17:15:14.259Z,2.50
2018-06-13T17:17:42.971Z,2.60
2018-06-13T17:20:11.146Z,2.40
2018-06-13T17:22:39.378Z,2.80
2018-06-13T17:25:08.070Z,2.60
2018-06-13T17:27:36.336Z,2.70
2018-06-13T17:30:06.371Z,2.67
2018-06-13T17:32:34.593Z,2.20
2018-06-13T17:35:03.110Z,2.73
2018-06-13T17:37:32.015Z,2.27
2018-06-13T17:40:00.320Z,2.70
2018-06-13T17:42:28.521Z,2.90
2018-06-13T17:44:56.729Z,2.30
2018-06-13T17:47:24.969Z,2.50
2018-06-13T17:49:53.229Z,2.53
2018-06-13T17:52:21.475Z,2.50
2018-06-13T17:54:49.700Z,2.67
2018-06-13T17:57:17.939Z,2.80
2018-06-13T17:59:46.450Z,2.80
2018-06-13T18:02:14.657Z,2.70
2018-06-13T18:04:43.575Z,3.17
2018-06-13T18:07:12.145Z,2.63
2018-06-13T18:09:40.337Z,3.33
2018-06-13T18:12:08.617Z,3.50
2018-06-13T18:14:37.425Z,3.17
2018-06-13T18:17:06.248Z,2.83
2018-06-13T18:19:34.714Z,3.53
2018-06-13T18:22:03.391Z,3.23
2018-06-13T18:24:33.774Z,3.60
2018-06-13T18:27:01.956Z,3.57
2018-06-13T18:29:30.191Z,3.37
2018-06-13T18:31:58.417Z,4.50
2018-06-13T18:34:26.590Z,4.00
2018-06-13T18:36:54.867Z,4.70
2018-06-13T18:39:23.115Z,4.07
2018-06-13T18:41:52.228Z,4.10
2018-06-13T18:44:20.438Z,4.00
2018-06-13T18:46:48.653Z,4.67
2018-06-13T18:49:17.115Z,4.30
2018-06-13T18:51:45.322Z,4.10
2018-06-13T18:54:13.638Z,5.20
2018-06-13T18:56:43.391Z,3.83
2018-06-13T18:59:11.666Z,4.57
2018-06-13T19:01:42.581Z,4.50
2018-06-13T19:04:10.910Z,5.00
2018-06-13T19:06:40.041Z,4.60
2018-06-13T19:09:09.973Z,4.13
2018-06-13T19:11:39.244Z,4.63
2018-06-13T19:14:08.148Z,4.50
2018-06-13T19:16:38.353Z,4.30
2018-06-13T19:19:07.437Z,5.50
2018-06-13T19:21:35.598Z,4.97
2018-06-13T19:24:05.782Z,5.50
2018-06-13T19:26:34.895Z,5.00
2018-06-13T19:29:04.106Z,5.37
2018-06-13T19:31:32.285Z,4.87
2018-06-13T19:34:00.499Z,5.67
2018-06-13T19:36:29.609Z,5.13
2018-06-13T19:38:57.772Z,6.07
2018-06-13T19:41:25.994Z,4.83
2018-06-13T19:43:55.246Z,6.30
2018-06-13T19:46:23.416Z,6.07
2018-06-13T19:48:54.014Z,6.10
2018-06-13T19:51:22.287Z,6.03
2018-06-13T19:53:55.994Z,5.83
2018-06-13T19:56:27.530Z,6.63
2018-06-13T19:58:56.207Z,6.10
2018-06-13T20:01:24.612Z,6.37
2018-06-13T20:03:58.605Z,6.30
2018-06-13T20:06:27.674Z,5.87
2018-06-13T20:08:55.878Z,6.63
2018-06-13T20:11:25.017Z,6.63
2018-06-13T20:13:58.649Z,6.00
2018-06-13T20:16:44.614Z,6.60
2018-06-13T20:19:18.261Z,6.33
2018-06-13T20:21:46.516Z,6.73
2018-06-13T20:24:14.717Z,6.67
2018-06-13T20:26:48.301Z,6.30
2018-06-13T20:29:21.933Z,6.93
2018-06-13T20:31:50.459Z,6.40
2018-06-13T20:34:18.617Z,6.13
2018-06-13T20:36:47.133Z,6.77
2018-06-13T20:39:15.968Z,6.50
2018-06-13T20:41:44.210Z,7.10
2018-06-13T20:44:12.518Z,6.80
2018-06-13T20:46:40.791Z,6.40
2018-06-13T20:49:08.772Z,6.30
2018-06-13T20:51:36.991Z,7.20
2018-06-13T20:54:05.242Z,6.90
2018-06-13T20:56:34.744Z,6.60
2018-06-13T20:59:03.605Z,7.40
2018-06-13T21:01:31.803Z,7.00
2018-06-13T21:04:01.607Z,6.50
2018-06-13T21:06:30.137Z,6.93
2018-06-13T21:08:58.316Z,6.77
2018-06-13T21:11:26.581Z,6.97
2018-06-13T21:13:55.318Z,6.67
2018-06-13T21:16:23.576Z,6.20
2018-06-13T21:18:52.651Z,6.00
2018-06-13T21:21:20.886Z,6.97
2018-06-13T21:23:49.127Z,7.67
2018-06-13T21:26:17.702Z,7.27
2018-06-13T21:28:45.915Z,6.87
2018-06-13T21:31:14.131Z,7.60
2018-06-13T21:33:42.412Z,7.93
2018-06-13T21:36:10.999Z,7.60
2018-06-13T21:38:39.224Z,7.90
2018-06-13T21:41:07.430Z,7.80
2018-06-13T21:43:35.819Z,8.00
2018-06-13T21:46:03.981Z,7.50
2018-06-13T21:48:33.128Z,8.80
2018-06-13T21:51:01.341Z,7.80
2018-06-13T21:53:29.601Z,7.20
2018-06-13T21:55:57.546Z,7.53
2018-06-13T21:58:26.357Z,7.87
2018-06-13T22:00:55.994Z,8.13
2018-06-13T22:03:24.206Z,8.10
2018-06-13T22:05:52.406Z,7.70
2018-06-13T22:08:20.886Z,7.17
2018-06-13T22:10:49.118Z,8.43
2018-06-13T22:13:17.370Z,7.67
2018-06-13T22:15:45.583Z,8.80
2018-06-13T22:18:13.777Z,8.60
2018-06-13T22:20:41.973Z,8.20
2018-06-13T22:23:11.289Z,8.27
2018-06-13T22:25:39.743Z,7.63
2018-06-13T22:28:08.214Z,9.00
2018-06-13T22:30:37.193Z,8.17
2018-06-13T22:33:05.121Z,7.90
2018-06-13T22:35:33.387Z,8.07
2018-06-13T22:38:01.571Z,8.40
2018-06-13T22:40:29.774Z,8.20
2018-06-13T22:42:58.998Z,7.70
2018-06-13T22:45:27.511Z,8.10
2018-06-13T22:47:55.786Z,8.17
2018-06-13T22:50:24.207Z,7.37
2018-06-13T22:52:53.058Z,7.27
2018-06-13T22:55:21.289Z,8.50
2018-06-13T22:57:50.230Z,9.53
2018-06-13T23:00:33.190Z,8.33
2018-06-13T23:03:01.723Z,8.73
2018-06-13T23:05:29.915Z,8.00
2018-06-13T23:07:58.135Z,7.07
2018-06-13T23:10:26.096Z,7.80
2018-06-13T23:12:54.310Z,7.87
2018-06-13T23:15:23.098Z,7.90
2018-06-13T23:17:51.332Z,8.90
2018-06-13T23:20:19.570Z,9.47
2018-06-13T23:22:48.445Z,8.53
2018-06-13T23:25:16.723Z,8.70
2018-06-13T23:27:45.809Z,8.33
2018-06-13T23:30:14.002Z,8.57
2018-06-13T23:32:42.235Z,8.20
2018-06-13T23:35:10.506Z,8.40
2018-06-13T23:37:38.465Z,9.07
2018-06-13T23:40:06.654Z,8.20
2018-06-13T23:42:34.617Z,8.63
2018-06-13T23:45:02.565Z,8.13
2018-06-13T23:47:31.363Z,8.93
2018-06-13T23:49:59.375Z,8.50
2018-06-13T23:52:27.569Z,8.37
2018-06-13T23:54:55.834Z,10.20
2018-06-13T23:57:24.117Z,9.37
2018-06-13T23:59:52.366Z,9.13
